Time;durP1;ratioP1;P1;durP2;ratioP2;P2;SDS_P1;SDS_P2;PMS_P1;PMS_P2;Temp;Humidity;BMP_temperature;BMP_pressure;BME280_temperature;BME280_humidity;BME280_pressure;Samples;Min_cycle;Max_cycle;Signal;HPM_P1;HPM_P2
2023/10/02 00:15:12;;;;;;;13.10;6.50;;;;;;;11.91;99.59;100994.36;677687;1258;139893;-80
2023/10/02 00:30:20;;;;;;;10.50;7.10;;;;;;;12.18;97.49;100989.48;674177;1260;140378;-80
2023/10/02 00:45:29;;;;;;;16.10;7.70;;;;;;;12.30;97.16;100987.27;671191;1263;139499;-80
2023/10/02 01:00:37;;;;;;;12.20;6.60;;;;;;;12.09;97.35;100980.45;670167;1262;138989;-79
2023/10/02 01:15:40;;;;;;;14.00;7.00;;;;;;;11.81;97.66;100988.10;670889;1263;139657;-78
2023/10/02 01:30:55;;;;;;;17.80;8.40;;;;;;;11.75;97.21;101001.73;669825;1262;140188;-78
2023/10/02 01:46:00;;;;;;;17.30;8.30;;;;;;;11.55;96.84;101000.74;673848;1259;140189;-78
2023/10/02 02:01:06;;;;;;;18.20;8.40;;;;;;;11.52;97.42;101003.64;669646;1259;140363;-79
2023/10/02 02:16:14;;;;;;;15.60;9.30;;;;;;;11.58;97.16;101014.16;672656;1262;140936;-79
2023/10/02 02:31:39;;;;;;;14.80;8.00;;;;;;;11.53;96.97;101005.11;675021;1262;139987;-79
2023/10/02 02:46:53;;;;;;;15.70;8.60;;;;;;;11.47;96.87;101018.89;674959;1262;139758;-80
2023/10/02 03:02:08;;;;;;;18.40;8.70;;;;;;;11.58;96.88;101016.09;676717;1262;137816;-79
2023/10/02 03:17:30;;;;;;;24.60;10.10;;;;;;;11.76;98.69;101005.71;676424;1259;139801;-79
2023/10/02 03:32:45;;;;;;;18.30;9.90;;;;;;;12.24;99.50;101006.71;677925;1262;140788;-79
2023/10/02 03:48:01;;;;;;;24.20;9.70;;;;;;;12.37;99.59;101003.51;674319;1262;139629;-80
2023/10/02 04:03:08;;;;;;;17.70;9.60;;;;;;;12.67;99.64;100990.44;673603;1262;139331;-79
2023/10/02 04:18:45;;;;;;;19.70;9.80;;;;;;;12.76;99.26;100976.35;677064;1264;140058;-79
2023/10/02 04:33:38;;;;;;;23.40;11.00;;;;;;;13.05;99.29;100974.34;673631;1262;139594;-78
2023/10/02 04:48:47;;;;;;;21.70;10.40;;;;;;;13.20;98.92;100989.96;672045;1266;140521;-79
2023/10/02 05:03:55;;;;;;;21.90;11.20;;;;;;;13.21;99.29;100995.13;670813;1262;139348;-79
2023/10/02 05:18:59;;;;;;;24.60;14.90;;;;;;;13.31;99.70;101000.95;672567;1265;139342;-78
2023/10/02 05:34:24;;;;;;;33.10;12.90;;;;;;;13.76;98.74;101009.77;672674;1262;138206;-78
2023/10/02 05:49:30;;;;;;;31.20;13.50;;;;;;;13.69;99.77;100997.40;668255;1273;138249;-79
2023/10/02 06:04:33;;;;;;;26.40;11.10;;;;;;;14.43;99.94;101001.38;668027;1262;140044;-80
2023/10/02 06:19:43;;;;;;;26.60;12.70;;;;;;;14.85;99.52;101003.39;671797;1275;139858;-80
2023/10/02 06:34:47;;;;;;;27.00;13.00;;;;;;;15.04;99.71;101019.05;672521;1274;139721;-79
2023/10/02 06:49:52;;;;;;;24.30;12.50;;;;;;;15.10;100.00;101015.58;672759;1263;139615;-80
2023/10/02 07:04:56;;;;;;;23.20;12.50;;;;;;;16.07;99.98;101013.94;672739;1266;139920;-79
2023/10/02 07:20:00;;;;;;;25.50;10.80;;;;;;;16.90;99.24;101015.52;669874;1275;139128;-79
2023/10/02 07:35:17;;;;;;;24.60;12.50;;;;;;;17.63;97.98;101033.82;671162;1273;140484;-77
2023/10/02 07:50:33;;;;;;;21.00;10.90;;;;;;;18.66;95.37;101038.05;669285;1263;139997;-78
2023/10/02 08:05:38;;;;;;;20.30;10.50;;;;;;;18.89;92.33;101041.50;668591;1262;140268;-78
2023/10/02 08:20:43;;;;;;;17.90;9.80;;;;;;;19.92;89.32;101033.80;668402;1263;138977;-78
2023/10/02 08:35:47;;;;;;;20.20;9.60;;;;;;;20.11;85.52;101030.58;668024;1261;139214;-78
2023/10/02 08:50:58;;;;;;;14.00;8.70;;;;;;;20.23;84.96;101033.19;668054;1265;139299;-78
2023/10/02 09:06:25;;;;;;;19.10;8.60;;;;;;;20.94;81.53;101028.88;667584;1278;139922;-78
2023/10/02 09:21:39;;;;;;;21.50;10.70;;;;;;;20.93;79.82;101011.64;668545;1261;140568;-79
2023/10/02 09:36:52;;;;;;;17.30;8.90;;;;;;;21.64;75.72;101000.48;669473;1264;139164;-79
2023/10/02 09:52:33;;;;;;;16.00;8.00;;;;;;;21.67;74.13;100989.16;667874;1270;141125;-78
2023/10/02 10:22:56;;;;;;;11.30;5.50;;;;;;;22.04;70.77;100987.35;667852;1264;142093;-78
2023/10/02 10:38:01;;;;;;;11.20;4.40;;;;;;;21.49;72.58;100993.52;669370;1265;139486;-78
2023/10/02 11:08:28;;;;;;;7.50;4.20;;;;;;;21.84;74.29;100969.05;667731;1258;139405;-78
2023/10/02 11:23:38;;;;;;;11.10;4.20;;;;;;;22.12;74.99;100949.69;667903;1263;138828;-78
2023/10/02 11:38:42;;;;;;;10.40;3.60;;;;;;;22.57;75.33;100939.69;668230;1260;139840;-78
2023/10/02 11:53:45;;;;;;;11.30;4.00;;;;;;;22.96;75.86;100931.15;667915;1262;139041;-79
2023/10/02 12:08:50;;;;;;;8.20;3.80;;;;;;;22.70;76.71;100924.88;668310;1274;138898;-79
2023/10/02 12:23:53;;;;;;;13.70;5.50;;;;;;;22.18;78.75;100918.52;668094;1264;139874;-79
2023/10/02 12:38:57;;;;;;;9.50;4.30;;;;;;;22.44;79.62;100900.75;667959;1263;141112;-78
2023/10/02 12:54:01;;;;;;;11.30;5.10;;;;;;;22.79;79.71;100892.96;667652;1259;139880;-78
2023/10/02 13:09:10;;;;;;;24.80;15.10;;;;;;;22.63;79.58;100893.11;668002;1259;139040;-78
2023/10/02 13:24:17;;;;;;;17.60;6.20;;;;;;;22.20;81.50;100885.98;668276;1264;139541;-78
2023/10/02 13:39:22;;;;;;;26.60;6.50;;;;;;;22.07;82.55;100872.77;668105;1260;140720;-79
2023/10/02 13:54:25;;;;;;;15.10;6.40;;;;;;;21.94;83.59;100863.40;667900;1259;140893;-80
2023/10/02 14:09:34;;;;;;;17.00;6.90;;;;;;;21.69;84.80;100850.96;672954;1264;139828;-79
2023/10/02 14:24:38;;;;;;;13.50;6.60;;;;;;;21.81;85.28;100846.44;673057;1263;139308;-80
2023/10/02 14:39:42;;;;;;;15.40;5.70;;;;;;;22.04;85.04;100824.29;670718;1259;139744;-79
2023/10/02 14:54:45;;;;;;;15.80;7.00;;;;;;;22.21;85.03;100821.14;669254;1262;139348;-78
2023/10/02 15:09:50;;;;;;;16.90;7.60;;;;;;;21.88;86.48;100817.29;669010;1263;139506;-78
2023/10/02 15:24:56;;;;;;;28.90;14.10;;;;;;;21.03;91.14;100807.77;667791;1262;139481;-79
2023/10/02 15:40:07;;;;;;;16.30;8.30;;;;;;;20.89;92.41;100810.15;671733;1259;139718;-77
2023/10/02 15:55:13;;;;;;;64.80;34.60;;;;;;;20.75;93.80;100808.36;668256;1259;139205;-78
2023/10/02 16:10:18;;;;;;;64.90;36.30;;;;;;;20.64;94.63;100802.89;670203;1263;140502;-78
2023/10/02 16:25:21;;;;;;;19.50;12.80;;;;;;;20.52;95.22;100803.50;668064;1259;139846;-78
2023/10/02 16:40:26;;;;;;;40.30;22.40;;;;;;;20.51;95.30;100806.52;668158;1263;139511;-78
2023/10/02 16:55:30;;;;;;;38.90;16.50;;;;;;;20.33;97.39;100803.91;668384;1262;139328;-78
2023/10/02 17:10:34;;;;;;;49.40;36.70;;;;;;;20.29;97.81;100810.83;667747;1265;140146;-79
2023/10/02 17:25:38;;;;;;;34.30;18.50;;;;;;;20.32;97.86;100805.70;668115;1264;139314;-78
2023/10/02 17:40:42;;;;;;;24.10;10.70;;;;;;;20.38;97.18;100798.39;668994;1264;139386;-78
2023/10/02 17:55:47;;;;;;;37.30;22.80;;;;;;;20.18;97.65;100801.39;670222;1264;139997;-77
2023/10/02 18:10:51;;;;;;;21.70;10.30;;;;;;;19.98;97.83;100800.63;669857;1263;140662;-80
2023/10/02 18:25:55;;;;;;;25.80;12.10;;;;;;;19.89;98.43;100799.34;668300;1264;139313;-79
2023/10/02 18:40:58;;;;;;;21.20;10.80;;;;;;;19.78;98.54;100797.59;669066;1263;140957;-78
2023/10/02 18:56:03;;;;;;;27.20;10.10;;;;;;;19.81;98.19;100794.83;668948;1265;139768;-79
2023/10/02 19:11:14;;;;;;;19.80;9.00;;;;;;;19.78;98.39;100782.70;668994;1259;139240;-79
2023/10/02 19:26:17;;;;;;;23.30;10.10;;;;;;;20.40;94.61;100785.96;669062;1262;139792;-78
2023/10/02 19:41:21;;;;;;;18.90;9.40;;;;;;;20.46;93.62;100777.61;668816;1262;142185;-78
2023/10/02 19:56:25;;;;;;;26.50;10.70;;;;;;;20.33;93.74;100762.42;670051;1260;139138;-79
2023/10/02 20:11:29;;;;;;;23.60;11.50;;;;;;;20.20;93.47;100753.11;669526;1268;140602;-79
2023/10/02 20:27:52;;;;;;;21.00;10.40;;;;;;;20.06;94.26;100740.16;648559;1298;546379;-79
2023/10/02 20:42:57;;;;;;;20.20;9.40;;;;;;;20.15;94.44;100731.05;666130;1280;138439;-80
2023/10/02 20:58:01;;;;;;;17.00;9.70;;;;;;;20.25;94.61;100718.36;665690;1273;138603;-78
2023/10/02 21:13:05;;;;;;;21.50;9.30;;;;;;;20.17;96.11;100705.08;670639;1273;138790;-80
2023/10/02 21:28:09;;;;;;;20.30;9.10;;;;;;;20.36;95.21;100697.41;674874;1272;138193;-79
2023/10/02 21:43:16;;;;;;;19.80;8.90;;;;;;;20.47;94.78;100684.80;669052;1286;138616;-79
2023/10/02 21:58:20;;;;;;;15.30;8.40;;;;;;;20.49;94.79;100679.67;669160;1282;139325;-80
2023/10/02 22:13:24;;;;;;;16.10;8.90;;;;;;;20.49;94.55;100666.23;669163;1272;138528;-80
2023/10/02 22:28:27;;;;;;;16.30;9.30;;;;;;;20.30;94.87;100662.70;669663;1272;139121;-80
2023/10/02 22:43:31;;;;;;;18.40;9.20;;;;;;;20.11;95.33;100661.44;669196;1273;139480;-80
2023/10/02 22:58:36;;;;;;;22.60;10.40;;;;;;;19.86;95.27;100661.27;668678;1272;139247;-80
2023/10/02 23:13:40;;;;;;;20.50;10.70;;;;;;;19.50;97.37;100654.39;668916;1273;139334;-79
2023/10/02 23:28:43;;;;;;;20.60;10.50;;;;;;;19.37;98.82;100651.00;666577;1273;139064;-79
2023/10/02 23:43:48;;;;;;;25.10;11.40;;;;;;;19.27;99.22;100636.71;664333;1285;139371;-79
2023/10/02 23:58:52;;;;;;;18.30;10.40;;;;;;;19.15;99.56;100636.13;665289;1266;139485;-78
